sensor_id;sensor_type;location;lat;lon;timestamp;P1;durP1;ratioP1;P2;durP2;ratioP2
19131;SDS011;9698;51.976;7.570;2023-06-22T00:01:18;10.00;;;9.00;;
19131;SDS011;9698;51.976;7.570;2023-06-22T00:03:47;10.87;;;8.83;;
19131;SDS011;9698;51.976;7.570;2023-06-22T00:06:15;11.93;;;9.33;;
19131;SDS011;9698;51.976;7.570;2023-06-22T00:08:43;9.90;;;8.90;;
19131;SDS011;9698;51.976;7.570;2023-06-22T00:11:11;12.13;;;9.27;;
19131;SDS011;9698;51.976;7.570;2023-06-22T00:13:39;9.77;;;8.77;;
19131;SDS011;9698;51.976;7.570;2023-06-22T00:16:07;10.60;;;9.23;;
19131;SDS011;9698;51.976;7.570;2023-06-22T00:18:34;10.57;;;9.47;;
19131;SDS011;9698;51.976;7.570;2023-06-22T00:21:02;9.90;;;8.90;;
19131;SDS011;9698;51.976;7.570;2023-06-22T00:23:30;11.00;;;9.90;;
19131;SDS011;9698;51.976;7.570;2023-06-22T00:26:00;10.53;;;9.40;;
19131;SDS011;9698;51.976;7.570;2023-06-22T00:28:28;10.20;;;9.10;;
19131;SDS011;9698;51.976;7.570;2023-06-22T00:30:56;10.60;;;9.57;;
19131;SDS011;9698;51.976;7.570;2023-06-22T00:33:24;9.93;;;8.93;;
19131;SDS011;9698;51.976;7.570;2023-06-22T00:35:52;10.10;;;9.03;;
19131;SDS011;9698;51.976;7.570;2023-06-22T00:38:20;12.03;;;10.43;;
19131;SDS011;9698;51.976;7.570;2023-06-22T00:40:48;10.97;;;9.80;;
19131;SDS011;9698;51.976;7.570;2023-06-22T00:43:17;10.47;;;9.57;;
19131;SDS011;9698;51.976;7.570;2023-06-22T00:45:44;10.53;;;9.53;;
19131;SDS011;9698;51.976;7.570;2023-06-22T00:48:13;10.47;;;9.43;;
19131;SDS011;9698;51.976;7.570;2023-06-22T00:50:42;10.60;;;9.60;;
19131;SDS011;9698;51.976;7.570;2023-06-22T00:53:10;10.93;;;9.80;;
19131;SDS011;9698;51.976;7.570;2023-06-22T00:55:38;11.07;;;10.03;;
19131;SDS011;9698;51.976;7.570;2023-06-22T00:58:09;11.17;;;9.97;;
19131;SDS011;9698;51.976;7.570;2023-06-22T01:00:39;11.77;;;9.93;;
19131;SDS011;9698;51.976;7.570;2023-06-22T01:03:08;11.20;;;10.03;;
19131;SDS011;9698;51.976;7.570;2023-06-22T01:05:38;11.53;;;10.40;;
19131;SDS011;9698;51.976;7.570;2023-06-22T01:08:08;11.23;;;10.07;;
19131;SDS011;9698;51.976;7.570;2023-06-22T01:10:49;11.60;;;10.47;;
19131;SDS011;9698;51.976;7.570;2023-06-22T01:13:23;13.83;;;10.53;;
19131;SDS011;9698;51.976;7.570;2023-06-22T01:15:57;11.90;;;10.70;;
19131;SDS011;9698;51.976;7.570;2023-06-22T01:18:30;13.90;;;10.80;;
19131;SDS011;9698;51.976;7.570;2023-06-22T01:21:02;11.87;;;10.67;;
19131;SDS011;9698;51.976;7.570;2023-06-22T01:23:38;10.73;;;9.70;;
19131;SDS011;9698;51.976;7.570;2023-06-22T01:26:18;11.80;;;10.40;;
19131;SDS011;9698;51.976;7.570;2023-06-22T01:28:54;11.57;;;10.40;;
19131;SDS011;9698;51.976;7.570;2023-06-22T01:31:24;11.83;;;10.43;;
19131;SDS011;9698;51.976;7.570;2023-06-22T01:33:57;11.70;;;10.50;;
19131;SDS011;9698;51.976;7.570;2023-06-22T01:36:27;12.23;;;11.03;;
19131;SDS011;9698;51.976;7.570;2023-06-22T01:38:56;11.37;;;10.23;;
19131;SDS011;9698;51.976;7.570;2023-06-22T01:41:26;12.20;;;10.93;;
19131;SDS011;9698;51.976;7.570;2023-06-22T01:43:55;11.73;;;10.40;;
19131;SDS011;9698;51.976;7.570;2023-06-22T01:46:25;14.07;;;11.50;;
19131;SDS011;9698;51.976;7.570;2023-06-22T01:48:53;12.17;;;10.97;;
19131;SDS011;9698;51.976;7.570;2023-06-22T01:54:07;11.80;;;10.53;;
19131;SDS011;9698;51.976;7.570;2023-06-22T01:56:35;12.27;;;10.97;;
19131;SDS011;9698;51.976;7.570;2023-06-22T01:59:05;12.90;;;11.43;;
19131;SDS011;9698;51.976;7.570;2023-06-22T02:01:41;12.87;;;11.57;;
19131;SDS011;9698;51.976;7.570;2023-06-22T02:04:13;12.33;;;11.07;;
19131;SDS011;9698;51.976;7.570;2023-06-22T02:06:46;11.83;;;10.73;;
19131;SDS011;9698;51.976;7.570;2023-06-22T02:09:16;12.70;;;11.30;;
19131;SDS011;9698;51.976;7.570;2023-06-22T02:11:46;12.37;;;11.10;;
19131;SDS011;9698;51.976;7.570;2023-06-22T02:14:18;12.83;;;11.50;;
19131;SDS011;9698;51.976;7.570;2023-06-22T02:16:46;12.10;;;11.00;;
19131;SDS011;9698;51.976;7.570;2023-06-22T02:19:14;12.53;;;11.43;;
19131;SDS011;9698;51.976;7.570;2023-06-22T02:21:44;12.90;;;11.60;;
19131;SDS011;9698;51.976;7.570;2023-06-22T02:24:12;13.00;;;11.70;;
19131;SDS011;9698;51.976;7.570;2023-06-22T02:26:40;12.57;;;11.27;;
19131;SDS011;9698;51.976;7.570;2023-06-22T02:29:11;13.70;;;11.67;;
19131;SDS011;9698;51.976;7.570;2023-06-22T02:31:39;12.50;;;11.20;;
19131;SDS011;9698;51.976;7.570;2023-06-22T02:34:07;12.90;;;11.60;;
19131;SDS011;9698;51.976;7.570;2023-06-22T02:36:35;12.17;;;10.93;;
19131;SDS011;9698;51.976;7.570;2023-06-22T02:39:02;12.63;;;11.33;;
19131;SDS011;9698;51.976;7.570;2023-06-22T02:41:30;13.03;;;11.50;;
19131;SDS011;9698;51.976;7.570;2023-06-22T02:43:58;12.20;;;10.97;;
19131;SDS011;9698;51.976;7.570;2023-06-22T02:46:26;14.17;;;11.80;;
19131;SDS011;9698;51.976;7.570;2023-06-22T02:48:54;13.80;;;12.27;;
19131;SDS011;9698;51.976;7.570;2023-06-22T02:51:22;13.27;;;11.93;;
19131;SDS011;9698;51.976;7.570;2023-06-22T02:53:49;13.77;;;11.37;;
19131;SDS011;9698;51.976;7.570;2023-06-22T02:56:18;13.23;;;11.93;;
19131;SDS011;9698;51.976;7.570;2023-06-22T02:58:51;13.70;;;11.60;;
19131;SDS011;9698;51.976;7.570;2023-06-22T03:01:19;11.80;;;10.70;;
19131;SDS011;9698;51.976;7.570;2023-06-22T03:03:50;12.63;;;11.20;;
19131;SDS011;9698;51.976;7.570;2023-06-22T03:06:19;13.00;;;11.67;;
19131;SDS011;9698;51.976;7.570;2023-06-22T03:08:50;13.57;;;11.07;;
19131;SDS011;9698;51.976;7.570;2023-06-22T03:11:18;11.90;;;10.70;;
19131;SDS011;9698;51.976;7.570;2023-06-22T03:13:46;12.37;;;11.07;;
19131;SDS011;9698;51.976;7.570;2023-06-22T03:16:14;12.73;;;11.43;;
19131;SDS011;9698;51.976;7.570;2023-06-22T03:18:42;12.20;;;11.00;;
19131;SDS011;9698;51.976;7.570;2023-06-22T03:21:09;11.90;;;10.70;;
19131;SDS011;9698;51.976;7.570;2023-06-22T03:23:37;11.97;;;10.87;;
19131;SDS011;9698;51.976;7.570;2023-06-22T03:26:05;12.23;;;11.07;;
19131;SDS011;9698;51.976;7.570;2023-06-22T03:28:33;11.93;;;10.73;;
19131;SDS011;9698;51.976;7.570;2023-06-22T03:31:01;12.13;;;10.80;;
19131;SDS011;9698;51.976;7.570;2023-06-22T03:33:29;12.93;;;10.97;;
19131;SDS011;9698;51.976;7.570;2023-06-22T03:35:57;13.10;;;10.67;;
19131;SDS011;9698;51.976;7.570;2023-06-22T03:38:25;12.10;;;10.90;;
19131;SDS011;9698;51.976;7.570;2023-06-22T03:40:53;11.90;;;10.70;;
19131;SDS011;9698;51.976;7.570;2023-06-22T03:43:22;12.60;;;11.30;;
19131;SDS011;9698;51.976;7.570;2023-06-22T03:45:50;12.03;;;10.83;;
19131;SDS011;9698;51.976;7.570;2023-06-22T03:48:18;12.07;;;10.70;;
19131;SDS011;9698;51.976;7.570;2023-06-22T03:50:46;12.53;;;11.33;;
19131;SDS011;9698;51.976;7.570;2023-06-22T03:53:14;11.30;;;10.20;;
19131;SDS011;9698;51.976;7.570;2023-06-22T03:55:48;12.07;;;10.87;;
19131;SDS011;9698;51.976;7.570;2023-06-22T03:58:16;12.73;;;11.17;;
19131;SDS011;9698;51.976;7.570;2023-06-22T04:00:46;12.10;;;10.77;;
19131;SDS011;9698;51.976;7.570;2023-06-22T04:03:14;11.57;;;10.40;;
19131;SDS011;9698;51.976;7.570;2023-06-22T04:05:42;12.60;;;10.80;;
19131;SDS011;9698;51.976;7.570;2023-06-22T04:08:11;11.70;;;10.50;;
19131;SDS011;9698;51.976;7.570;2023-06-22T04:10:39;11.67;;;10.47;;
19131;SDS011;9698;51.976;7.570;2023-06-22T04:13:07;13.03;;;11.13;;
19131;SDS011;9698;51.976;7.570;2023-06-22T04:15:35;12.63;;;11.33;;
19131;SDS011;9698;51.976;7.570;2023-06-22T04:18:03;12.23;;;11.03;;
19131;SDS011;9698;51.976;7.570;2023-06-22T04:20:32;12.00;;;10.33;;
19131;SDS011;9698;51.976;7.570;2023-06-22T04:23:00;12.03;;;10.83;;
19131;SDS011;9698;51.976;7.570;2023-06-22T04:25:28;12.03;;;10.93;;
19131;SDS011;9698;51.976;7.570;2023-06-22T04:27:55;10.23;;;9.17;;
19131;SDS011;9698;51.976;7.570;2023-06-22T04:30:23;11.93;;;9.97;;
19131;SDS011;9698;51.976;7.570;2023-06-22T04:32:52;10.77;;;9.60;;
19131;SDS011;9698;51.976;7.570;2023-06-22T04:35:23;11.83;;;10.73;;
19131;SDS011;9698;51.976;7.570;2023-06-22T04:37:52;10.97;;;9.57;;
19131;SDS011;9698;51.976;7.570;2023-06-22T04:40:21;11.80;;;10.03;;
19131;SDS011;9698;51.976;7.570;2023-06-22T04:42:49;12.90;;;10.40;;
19131;SDS011;9698;51.976;7.570;2023-06-22T04:45:19;11.30;;;9.87;;
19131;SDS011;9698;51.976;7.570;2023-06-22T04:47:48;11.80;;;10.50;;
19131;SDS011;9698;51.976;7.570;2023-06-22T04:50:16;11.33;;;10.13;;
19131;SDS011;9698;51.976;7.570;2023-06-22T04:52:47;12.93;;;10.27;;
19131;SDS011;9698;51.976;7.570;2023-06-22T04:55:15;10.63;;;9.63;;
19131;SDS011;9698;51.976;7.570;2023-06-22T04:57:46;12.00;;;9.47;;
19131;SDS011;9698;51.976;7.570;2023-06-22T05:00:16;10.53;;;9.17;;
19131;SDS011;9698;51.976;7.570;2023-06-22T05:02:46;11.10;;;9.93;;
19131;SDS011;9698;51.976;7.570;2023-06-22T05:05:14;11.07;;;9.87;;
19131;SDS011;9698;51.976;7.570;2023-06-22T05:07:44;10.77;;;9.67;;
19131;SDS011;9698;51.976;7.570;2023-06-22T05:10:14;12.17;;;9.83;;
19131;SDS011;9698;51.976;7.570;2023-06-22T05:12:42;12.40;;;9.83;;
19131;SDS011;9698;51.976;7.570;2023-06-22T05:15:10;11.03;;;9.93;;
19131;SDS011;9698;51.976;7.570;2023-06-22T05:17:38;12.57;;;9.97;;
19131;SDS011;9698;51.976;7.570;2023-06-22T05:20:10;11.03;;;9.93;;
19131;SDS011;9698;51.976;7.570;2023-06-22T05:22:39;14.23;;;10.03;;
19131;SDS011;9698;51.976;7.570;2023-06-22T05:25:09;11.23;;;10.10;;
19131;SDS011;9698;51.976;7.570;2023-06-22T05:27:38;11.77;;;10.57;;
19131;SDS011;9698;51.976;7.570;2023-06-22T05:30:08;11.03;;;9.30;;
19131;SDS011;9698;51.976;7.570;2023-06-22T05:32:37;11.07;;;9.97;;
19131;SDS011;9698;51.976;7.570;2023-06-22T05:35:06;13.47;;;9.87;;
19131;SDS011;9698;51.976;7.570;2023-06-22T05:37:35;14.63;;;10.13;;
19131;SDS011;9698;51.976;7.570;2023-06-22T05:40:05;15.30;;;10.33;;
19131;SDS011;9698;51.976;7.570;2023-06-22T05:42:36;15.17;;;10.63;;
19131;SDS011;9698;51.976;7.570;2023-06-22T05:45:22;11.67;;;10.43;;
19131;SDS011;9698;51.976;7.570;2023-06-22T05:47:50;15.23;;;10.03;;
19131;SDS011;9698;51.976;7.570;2023-06-22T05:50:18;13.17;;;9.30;;
19131;SDS011;9698;51.976;7.570;2023-06-22T05:52:46;13.93;;;10.53;;
19131;SDS011;9698;51.976;7.570;2023-06-22T05:55:14;15.73;;;10.23;;
19131;SDS011;9698;51.976;7.570;2023-06-22T05:57:44;15.67;;;10.00;;
19131;SDS011;9698;51.976;7.570;2023-06-22T06:02:58;12.60;;;9.77;;
19131;SDS011;9698;51.976;7.570;2023-06-22T06:05:29;10.20;;;9.20;;
19131;SDS011;9698;51.976;7.570;2023-06-22T06:07:58;12.00;;;8.83;;
19131;SDS011;9698;51.976;7.570;2023-06-22T06:10:26;12.43;;;9.10;;
19131;SDS011;9698;51.976;7.570;2023-06-22T06:12:56;10.37;;;8.87;;
19131;SDS011;9698;51.976;7.570;2023-06-22T06:15:24;19.03;;;9.77;;
19131;SDS011;9698;51.976;7.570;2023-06-22T06:17:52;9.90;;;8.73;;
19131;SDS011;9698;51.976;7.570;2023-06-22T06:20:21;12.27;;;8.90;;
19131;SDS011;9698;51.976;7.570;2023-06-22T06:22:50;14.17;;;9.90;;
19131;SDS011;9698;51.976;7.570;2023-06-22T06:25:18;11.40;;;8.97;;
19131;SDS011;9698;51.976;7.570;2023-06-22T06:27:49;10.23;;;9.17;;
19131;SDS011;9698;51.976;7.570;2023-06-22T06:30:18;11.90;;;8.90;;
19131;SDS011;9698;51.976;7.570;2023-06-22T06:32:46;12.17;;;9.13;;
19131;SDS011;9698;51.976;7.570;2023-06-22T06:35:15;13.63;;;8.87;;
19131;SDS011;9698;51.976;7.570;2023-06-22T06:37:43;11.17;;;8.83;;
19131;SDS011;9698;51.976;7.570;2023-06-22T06:40:15;12.00;;;8.87;;
19131;SDS011;9698;51.976;7.570;2023-06-22T06:42:44;10.37;;;8.57;;
19131;SDS011;9698;51.976;7.570;2023-06-22T06:45:14;11.80;;;8.10;;
19131;SDS011;9698;51.976;7.570;2023-06-22T06:47:43;9.57;;;8.00;;
19131;SDS011;9698;51.976;7.570;2023-06-22T06:50:12;10.83;;;8.33;;
19131;SDS011;9698;51.976;7.570;2023-06-22T06:52:40;13.33;;;8.47;;
19131;SDS011;9698;51.976;7.570;2023-06-22T06:55:09;12.63;;;9.23;;
19131;SDS011;9698;51.976;7.570;2023-06-22T06:57:38;9.87;;;8.53;;
19131;SDS011;9698;51.976;7.570;2023-06-22T07:00:10;10.53;;;8.63;;
19131;SDS011;9698;51.976;7.570;2023-06-22T07:02:40;11.43;;;8.30;;
19131;SDS011;9698;51.976;7.570;2023-06-22T07:05:10;14.03;;;8.50;;
19131;SDS011;9698;51.976;7.570;2023-06-22T07:07:39;10.93;;;8.77;;
19131;SDS011;9698;51.976;7.570;2023-06-22T07:10:09;10.50;;;8.37;;
19131;SDS011;9698;51.976;7.570;2023-06-22T07:12:38;11.27;;;9.43;;
19131;SDS011;9698;51.976;7.570;2023-06-22T07:15:07;9.47;;;8.43;;
19131;SDS011;9698;51.976;7.570;2023-06-22T07:17:36;8.67;;;7.77;;
19131;SDS011;9698;51.976;7.570;2023-06-22T07:20:06;10.23;;;8.63;;
19131;SDS011;9698;51.976;7.570;2023-06-22T07:22:37;9.53;;;8.57;;
19131;SDS011;9698;51.976;7.570;2023-06-22T07:25:06;9.73;;;8.73;;
19131;SDS011;9698;51.976;7.570;2023-06-22T07:27:36;10.30;;;9.10;;
19131;SDS011;9698;51.976;7.570;2023-06-22T07:30:06;10.07;;;9.07;;
19131;SDS011;9698;51.976;7.570;2023-06-22T07:32:35;9.97;;;8.90;;
19131;SDS011;9698;51.976;7.570;2023-06-22T07:35:04;13.47;;;9.33;;
19131;SDS011;9698;51.976;7.570;2023-06-22T07:37:33;11.90;;;9.20;;
19131;SDS011;9698;51.976;7.570;2023-06-22T07:40:01;11.13;;;9.00;;
19131;SDS011;9698;51.976;7.570;2023-06-22T07:42:32;10.20;;;8.67;;
19131;SDS011;9698;51.976;7.570;2023-06-22T07:45:00;9.70;;;8.80;;
19131;SDS011;9698;51.976;7.570;2023-06-22T07:47:29;9.50;;;8.53;;
19131;SDS011;9698;51.976;7.570;2023-06-22T07:50:01;9.73;;;8.50;;
19131;SDS011;9698;51.976;7.570;2023-06-22T07:52:30;10.40;;;9.30;;
19131;SDS011;9698;51.976;7.570;2023-06-22T07:54:59;13.30;;;9.00;;
19131;SDS011;9698;51.976;7.570;2023-06-22T07:57:28;11.27;;;9.03;;
19131;SDS011;9698;51.976;7.570;2023-06-22T08:00:00;13.87;;;8.60;;
19131;SDS011;9698;51.976;7.570;2023-06-22T08:02:32;17.77;;;10.23;;
19131;SDS011;9698;51.976;7.570;2023-06-22T08:05:00;12.53;;;8.93;;
19131;SDS011;9698;51.976;7.570;2023-06-22T08:07:46;20.00;;;9.67;;
19131;SDS011;9698;51.976;7.570;2023-06-22T08:10:15;12.60;;;9.43;;
19131;SDS011;9698;51.976;7.570;2023-06-22T08:12:43;13.53;;;9.33;;
19131;SDS011;9698;51.976;7.570;2023-06-22T08:15:11;14.17;;;9.23;;
19131;SDS011;9698;51.976;7.570;2023-06-22T08:17:39;16.70;;;10.57;;
19131;SDS011;9698;51.976;7.570;2023-06-22T08:20:09;16.60;;;8.93;;
19131;SDS011;9698;51.976;7.570;2023-06-22T08:22:39;13.93;;;9.97;;
19131;SDS011;9698;51.976;7.570;2023-06-22T08:25:09;13.87;;;9.20;;
19131;SDS011;9698;51.976;7.570;2023-06-22T08:27:37;11.63;;;9.23;;
19131;SDS011;9698;51.976;7.570;2023-06-22T08:30:06;12.03;;;9.33;;
19131;SDS011;9698;51.976;7.570;2023-06-22T08:32:37;10.40;;;9.30;;
19131;SDS011;9698;51.976;7.570;2023-06-22T08:35:06;13.47;;;9.97;;
19131;SDS011;9698;51.976;7.570;2023-06-22T08:37:35;10.20;;;9.20;;
19131;SDS011;9698;51.976;7.570;2023-06-22T08:40:07;11.57;;;9.20;;
19131;SDS011;9698;51.976;7.570;2023-06-22T08:42:36;10.60;;;8.83;;
19131;SDS011;9698;51.976;7.570;2023-06-22T08:45:07;9.83;;;8.47;;
19131;SDS011;9698;51.976;7.570;2023-06-22T08:47:36;11.43;;;8.93;;
19131;SDS011;9698;51.976;7.570;2023-06-22T08:50:06;12.30;;;9.83;;
19131;SDS011;9698;51.976;7.570;2023-06-22T08:52:35;12.33;;;11.03;;
19131;SDS011;9698;51.976;7.570;2023-06-22T08:57:50;13.00;;;9.90;;
19131;SDS011;9698;51.976;7.570;2023-06-22T09:00:20;11.17;;;9.87;;
19131;SDS011;9698;51.976;7.570;2023-06-22T09:02:48;11.00;;;9.50;;
19131;SDS011;9698;51.976;7.570;2023-06-22T09:05:17;10.67;;;9.63;;
19131;SDS011;9698;51.976;7.570;2023-06-22T09:07:45;11.97;;;10.37;;
19131;SDS011;9698;51.976;7.570;2023-06-22T09:10:13;10.63;;;9.57;;
19131;SDS011;9698;51.976;7.570;2023-06-22T09:12:41;14.67;;;10.83;;
19131;SDS011;9698;51.976;7.570;2023-06-22T09:15:10;11.33;;;10.10;;
19131;SDS011;9698;51.976;7.570;2023-06-22T09:17:42;10.43;;;9.40;;
19131;SDS011;9698;51.976;7.570;2023-06-22T09:20:12;12.50;;;10.50;;
19131;SDS011;9698;51.976;7.570;2023-06-22T09:22:41;13.03;;;10.93;;
19131;SDS011;9698;51.976;7.570;2023-06-22T09:25:10;12.53;;;11.23;;
19131;SDS011;9698;51.976;7.570;2023-06-22T09:27:38;13.13;;;11.80;;
19131;SDS011;9698;51.976;7.570;2023-06-22T09:30:08;13.50;;;12.20;;
19131;SDS011;9698;51.976;7.570;2023-06-22T09:32:36;11.77;;;10.60;;
19131;SDS011;9698;51.976;7.570;2023-06-22T09:35:05;14.57;;;12.53;;
19131;SDS011;9698;51.976;7.570;2023-06-22T09:37:52;17.50;;;11.80;;
19131;SDS011;9698;51.976;7.570;2023-06-22T09:40:22;14.97;;;12.00;;
19131;SDS011;9698;51.976;7.570;2023-06-22T09:42:50;13.40;;;12.00;;
19131;SDS011;9698;51.976;7.570;2023-06-22T09:45:18;12.30;;;11.13;;
19131;SDS011;9698;51.976;7.570;2023-06-22T09:47:46;13.87;;;12.57;;
19131;SDS011;9698;51.976;7.570;2023-06-22T09:50:14;15.30;;;13.77;;
19131;SDS011;9698;51.976;7.570;2023-06-22T09:52:42;15.10;;;12.43;;
19131;SDS011;9698;51.976;7.570;2023-06-22T09:55:14;12.07;;;10.87;;
19131;SDS011;9698;51.976;7.570;2023-06-22T09:57:43;12.70;;;10.87;;
19131;SDS011;9698;51.976;7.570;2023-06-22T10:00:12;12.87;;;11.57;;
19131;SDS011;9698;51.976;7.570;2023-06-22T10:02:42;12.63;;;11.43;;
19131;SDS011;9698;51.976;7.570;2023-06-22T10:05:11;14.30;;;12.70;;
19131;SDS011;9698;51.976;7.570;2023-06-22T10:07:39;13.53;;;12.10;;
19131;SDS011;9698;51.976;7.570;2023-06-22T10:10:10;14.30;;;12.90;;
19131;SDS011;9698;51.976;7.570;2023-06-22T10:12:40;13.53;;;11.80;;
19131;SDS011;9698;51.976;7.570;2023-06-22T10:15:10;14.23;;;12.93;;
19131;SDS011;9698;51.976;7.570;2023-06-22T10:17:40;13.63;;;12.23;;
19131;SDS011;9698;51.976;7.570;2023-06-22T10:20:09;16.27;;;12.30;;
19131;SDS011;9698;51.976;7.570;2023-06-22T10:22:38;14.53;;;13.03;;
19131;SDS011;9698;51.976;7.570;2023-06-22T10:25:08;13.93;;;12.43;;
19131;SDS011;9698;51.976;7.570;2023-06-22T10:27:36;13.37;;;12.00;;
19131;SDS011;9698;51.976;7.570;2023-06-22T10:30:08;14.03;;;12.23;;
19131;SDS011;9698;51.976;7.570;2023-06-22T10:32:39;15.50;;;12.70;;
19131;SDS011;9698;51.976;7.570;2023-06-22T10:35:09;13.40;;;12.10;;
19131;SDS011;9698;51.976;7.570;2023-06-22T10:37:39;13.43;;;12.10;;
19131;SDS011;9698;51.976;7.570;2023-06-22T10:40:10;13.93;;;11.83;;
19131;SDS011;9698;51.976;7.570;2023-06-22T10:42:40;13.13;;;11.73;;
19131;SDS011;9698;51.976;7.570;2023-06-22T10:45:08;16.57;;;12.93;;
19131;SDS011;9698;51.976;7.570;2023-06-22T10:47:37;13.73;;;12.33;;
19131;SDS011;9698;51.976;7.570;2023-06-22T10:50:07;13.73;;;12.27;;
19131;SDS011;9698;51.976;7.570;2023-06-22T10:52:35;12.53;;;11.37;;
19131;SDS011;9698;51.976;7.570;2023-06-22T10:55:04;12.23;;;10.97;;
19131;SDS011;9698;51.976;7.570;2023-06-22T10:57:33;14.27;;;12.07;;
19131;SDS011;9698;51.976;7.570;2023-06-22T11:00:03;32.67;;;13.33;;
19131;SDS011;9698;51.976;7.570;2023-06-22T11:02:35;16.13;;;11.43;;
19131;SDS011;9698;51.976;7.570;2023-06-22T11:05:04;13.83;;;12.40;;
19131;SDS011;9698;51.976;7.570;2023-06-22T11:07:33;15.83;;;13.33;;
19131;SDS011;9698;51.976;7.570;2023-06-22T11:10:02;14.23;;;12.77;;
19131;SDS011;9698;51.976;7.570;2023-06-22T11:12:32;13.27;;;11.97;;
19131;SDS011;9698;51.976;7.570;2023-06-22T11:15:00;13.63;;;12.23;;
19131;SDS011;9698;51.976;7.570;2023-06-22T11:17:28;14.13;;;12.73;;
19131;SDS011;9698;51.976;7.570;2023-06-22T11:19:56;13.67;;;12.27;;
19131;SDS011;9698;51.976;7.570;2023-06-22T11:22:26;13.27;;;11.83;;
19131;SDS011;9698;51.976;7.570;2023-06-22T11:24:56;13.67;;;12.27;;
19131;SDS011;9698;51.976;7.570;2023-06-22T11:27:24;13.83;;;12.50;;
19131;SDS011;9698;51.976;7.570;2023-06-22T11:29:52;14.77;;;12.53;;
19131;SDS011;9698;51.976;7.570;2023-06-22T11:32:20;14.67;;;13.33;;
19131;SDS011;9698;51.976;7.570;2023-06-22T11:34:48;14.50;;;12.43;;
19131;SDS011;9698;51.976;7.570;2023-06-22T11:37:16;15.03;;;11.73;;
19131;SDS011;9698;51.976;7.570;2023-06-22T11:39:44;13.60;;;11.37;;
19131;SDS011;9698;51.976;7.570;2023-06-22T11:42:25;17.57;;;11.33;;
19131;SDS011;9698;51.976;7.570;2023-06-22T11:44:54;12.17;;;10.87;;
19131;SDS011;9698;51.976;7.570;2023-06-22T11:47:24;11.77;;;10.67;;
19131;SDS011;9698;51.976;7.570;2023-06-22T11:49:53;13.10;;;11.40;;
19131;SDS011;9698;51.976;7.570;2023-06-22T11:52:21;12.43;;;11.20;;
19131;SDS011;9698;51.976;7.570;2023-06-22T11:54:49;10.40;;;9.40;;
19131;SDS011;9698;51.976;7.570;2023-06-22T11:57:17;12.70;;;9.60;;
19131;SDS011;9698;51.976;7.570;2023-06-22T11:59:45;11.83;;;9.73;;
19131;SDS011;9698;51.976;7.570;2023-06-22T12:02:13;16.70;;;9.70;;
19131;SDS011;9698;51.976;7.570;2023-06-22T12:04:41;10.50;;;9.33;;
19131;SDS011;9698;51.976;7.570;2023-06-22T12:07:09;10.63;;;9.50;;
19131;SDS011;9698;51.976;7.570;2023-06-22T12:09:38;10.83;;;9.60;;
19131;SDS011;9698;51.976;7.570;2023-06-22T12:12:07;11.30;;;9.53;;
19131;SDS011;9698;51.976;7.570;2023-06-22T12:14:36;10.43;;;9.33;;
19131;SDS011;9698;51.976;7.570;2023-06-22T12:17:04;11.60;;;10.50;;
19131;SDS011;9698;51.976;7.570;2023-06-22T12:19:32;11.80;;;10.67;;
19131;SDS011;9698;51.976;7.570;2023-06-22T12:22:00;11.80;;;10.63;;
19131;SDS011;9698;51.976;7.570;2023-06-22T12:24:29;12.27;;;11.07;;
19131;SDS011;9698;51.976;7.570;2023-06-22T12:26:56;11.97;;;10.77;;
19131;SDS011;9698;51.976;7.570;2023-06-22T12:29:24;11.83;;;10.63;;
19131;SDS011;9698;51.976;7.570;2023-06-22T12:31:52;11.80;;;10.70;;
19131;SDS011;9698;51.976;7.570;2023-06-22T12:34:20;11.70;;;10.40;;
19131;SDS011;9698;51.976;7.570;2023-06-22T12:36:48;11.70;;;10.60;;
19131;SDS011;9698;51.976;7.570;2023-06-22T12:39:16;11.70;;;10.60;;
19131;SDS011;9698;51.976;7.570;2023-06-22T12:41:45;11.33;;;10.33;;
19131;SDS011;9698;51.976;7.570;2023-06-22T12:44:13;13.53;;;12.23;;
19131;SDS011;9698;51.976;7.570;2023-06-22T12:46:41;13.10;;;10.93;;
19131;SDS011;9698;51.976;7.570;2023-06-22T12:49:09;12.97;;;11.67;;
19131;SDS011;9698;51.976;7.570;2023-06-22T12:51:40;12.93;;;11.63;;
19131;SDS011;9698;51.976;7.570;2023-06-22T12:54:08;13.90;;;12.50;;
19131;SDS011;9698;51.976;7.570;2023-06-22T12:56:36;14.17;;;12.87;;
19131;SDS011;9698;51.976;7.570;2023-06-22T12:59:05;14.70;;;13.23;;
19131;SDS011;9698;51.976;7.570;2023-06-22T13:01:53;15.90;;;14.33;;
19131;SDS011;9698;51.976;7.570;2023-06-22T13:07:06;17.00;;;14.70;;
19131;SDS011;9698;51.976;7.570;2023-06-22T13:09:49;16.93;;;15.10;;
19131;SDS011;9698;51.976;7.570;2023-06-22T13:12:18;17.20;;;14.60;;
19131;SDS011;9698;51.976;7.570;2023-06-22T13:14:46;18.20;;;15.50;;
19131;SDS011;9698;51.976;7.570;2023-06-22T13:17:14;17.60;;;15.47;;
19131;SDS011;9698;51.976;7.570;2023-06-22T13:19:42;18.13;;;16.17;;
19131;SDS011;9698;51.976;7.570;2023-06-22T13:22:30;20.37;;;15.73;;
19131;SDS011;9698;51.976;7.570;2023-06-22T13:25:00;18.33;;;16.40;;
19131;SDS011;9698;51.976;7.570;2023-06-22T13:27:28;19.27;;;17.37;;
19131;SDS011;9698;51.976;7.570;2023-06-22T13:29:57;19.00;;;17.20;;
19131;SDS011;9698;51.976;7.570;2023-06-22T13:32:25;20.67;;;16.97;;
19131;SDS011;9698;51.976;7.570;2023-06-22T13:34:53;18.77;;;16.97;;
19131;SDS011;9698;51.976;7.570;2023-06-22T13:37:22;19.47;;;16.37;;
19131;SDS011;9698;51.976;7.570;2023-06-22T13:39:49;19.27;;;17.47;;
19131;SDS011;9698;51.976;7.570;2023-06-22T13:42:17;19.67;;;17.70;;
19131;SDS011;9698;51.976;7.570;2023-06-22T13:44:45;20.17;;;18.17;;
19131;SDS011;9698;51.976;7.570;2023-06-22T13:47:13;25.47;;;23.03;;
19131;SDS011;9698;51.976;7.570;2023-06-22T13:49:41;23.87;;;21.57;;
19131;SDS011;9698;51.976;7.570;2023-06-22T13:52:10;20.67;;;18.77;;
19131;SDS011;9698;51.976;7.570;2023-06-22T13:54:38;20.33;;;18.30;;
19131;SDS011;9698;51.976;7.570;2023-06-22T13:57:07;19.97;;;17.97;;
19131;SDS011;9698;51.976;7.570;2023-06-22T13:59:35;20.33;;;18.20;;
19131;SDS011;9698;51.976;7.570;2023-06-22T14:02:04;21.13;;;19.03;;
19131;SDS011;9698;51.976;7.570;2023-06-22T14:04:32;21.07;;;18.73;;
19131;SDS011;9698;51.976;7.570;2023-06-22T14:07:00;19.00;;;17.20;;
19131;SDS011;9698;51.976;7.570;2023-06-22T14:09:28;19.70;;;17.77;;
19131;SDS011;9698;51.976;7.570;2023-06-22T14:11:56;19.90;;;17.83;;
19131;SDS011;9698;51.976;7.570;2023-06-22T14:14:24;20.43;;;18.50;;
19131;SDS011;9698;51.976;7.570;2023-06-22T14:16:53;19.03;;;17.13;;
19131;SDS011;9698;51.976;7.570;2023-06-22T14:19:20;20.03;;;18.03;;
19131;SDS011;9698;51.976;7.570;2023-06-22T14:21:48;20.07;;;17.87;;
19131;SDS011;9698;51.976;7.570;2023-06-22T14:24:16;20.60;;;18.33;;
19131;SDS011;9698;51.976;7.570;2023-06-22T14:26:44;20.73;;;18.73;;
19131;SDS011;9698;51.976;7.570;2023-06-22T14:29:12;18.80;;;17.00;;
19131;SDS011;9698;51.976;7.570;2023-06-22T14:31:44;19.90;;;17.90;;
19131;SDS011;9698;51.976;7.570;2023-06-22T14:34:13;17.10;;;15.50;;
19131;SDS011;9698;51.976;7.570;2023-06-22T14:36:42;17.83;;;16.17;;
19131;SDS011;9698;51.976;7.570;2023-06-22T14:39:10;18.50;;;16.50;;
19131;SDS011;9698;51.976;7.570;2023-06-22T14:41:38;17.50;;;15.80;;
19131;SDS011;9698;51.976;7.570;2023-06-22T14:44:06;18.50;;;16.80;;
19131;SDS011;9698;51.976;7.570;2023-06-22T14:46:34;19.13;;;17.30;;
19131;SDS011;9698;51.976;7.570;2023-06-22T14:49:02;18.83;;;16.70;;
19131;SDS011;9698;51.976;7.570;2023-06-22T14:51:30;19.47;;;17.50;;
19131;SDS011;9698;51.976;7.570;2023-06-22T14:53:59;18.37;;;16.70;;
19131;SDS011;9698;51.976;7.570;2023-06-22T14:56:26;20.53;;;18.57;;
19131;SDS011;9698;51.976;7.570;2023-06-22T14:58:55;18.20;;;16.33;;
19131;SDS011;9698;51.976;7.570;2023-06-22T15:01:23;19.17;;;17.17;;
19131;SDS011;9698;51.976;7.570;2023-06-22T15:03:51;16.13;;;14.63;;